CYSFCYFB

Guest
Details From CYSF - Stony Rapids
To CYFB - Iqaluit
Flight Number -
Tags Generated
Created
Modified
Stats Distance 1,087 nm / 2,013 km
Max Altitude 0 ft / 0 m
Waypoints 4
Social Downloads 0
Likes 0
Share VATSIM

Download

Looking for another format? Having issues loading an existing format? Contact us
Advertisement - Login to hide

Notes

Generated

Route

CYSF 16YYQ YFY CYFB

ID Type Via Altitude Latitude Longitude Leg Dist Tot Dist Heading (true) Name
O CYSF APT - 0 ft / 0 m 59.25236˚ -105.82838˚ - 0 nm - -
16YYQ FIX - 0 ft / 0 m 60.77426˚ -99.99925˚ 197 nm 197 nm 60° / 65° -
YFY NDB - 0 ft / 0 m 63.73333˚ -68.54806˚ 887 nm 1084 nm 65° / 93° FROBAY NDB
O CYFB APT - 0 ft / 0 m 63.76497˚ -68.57398˚ 2 nm 1086 nm 340° / 340° -

Altitude Profile

Advertisement - Login to hide

Weather


0- 5 10 15 20 25 30 35+ Temperature / ° C

Clouds and Precipitation
Forecast for 2017-12-15 18:00 UTC. Updated an hour ago

Ground ~20,000 ft ~40,000 ft Winds

CYSF

Details ICAO CYSF (YSF)
Name Stony Rapids
Region Canada
Timezone America/Regina (UTC-6.0)
Stats Elevation 805 ft / 245 m (AMSL)
Location 59.250340° -105.841339°
Runways 1
Magnetic Variation 10.153° E

METAR

CYSF 151415Z AUTO 09011KT 9SM SCT010 OVC130 M22/M24 A2976 RMK SLP108

Decode

TAF

TAF CYSF 151138Z 1512/1524 10010KT P6SM OVC006 TEMPO 1512/1521 BKN012 FM152100 10012KT P6SM -SN BKN020 OVC050 RMK FCST BASED ON AUTO OBS. NXT FCST BY 151800Z

Decode

Departure Runways

ID Width Length Bearing (true) Bearing (mag) Surface Threshold Offset Overrun Length
06 98 ft / 30 m 5,055 ft / 1,541 m 253.01° 242.86° Asphalt 0 ft / 0 m 0 ft / 0 m
24 98 ft / 30 m 5,055 ft / 1,541 m 72.99° 62.84° Asphalt 0 ft / 0 m 0 ft / 0 m

CYFB

Details ICAO CYFB (YFB)
Name Iqaluit
Region Canada
Timezone America/Iqaluit (UTC-5.0)
Stats Elevation 110 ft / 34 m (AMSL)
Location 63.756565° -68.556058°
Runways 1
Magnetic Variation 27.542° W

METAR

CYFB 151437Z 04012G18KT 350V050 30SM FEW045 SCT092 BKN120 M06/M11 A2914 RMK SC2AC2AC3 WSHFT 1420 SLP873

Decode

TAF

TAF TAF AMD CYFB 151304Z 1513/1612 04012G22KT P6SM BKN080 TEMPO 1513/1522 05028G38KT 11/2SM -SN BLSN SCT020 OVC080 FM152200 02015G25KT 3SM BLSN FEW050 SCT200 TEMPO 1522/1603 P6SM NSW FM160300 33015KT P6SM -SN BKN020 OVC080 FM160800 33018KT 4SM -SN BKN020 OVC060 RMK NXT FCST BY 151800Z

Decode

Destination Runways

ID Width Length Bearing (true) Bearing (mag) Surface Threshold Offset Overrun Length
17 200 ft / 61 m 8,605 ft / 2,623 m 135.58° 163.12° Asphalt 0 ft / 0 m 210 ft / 64 m
35 200 ft / 61 m 8,605 ft / 2,623 m 315.62° 343.16° Asphalt 0 ft / 0 m 243 ft / 74 m